Duchesne, Utah
Current Conditions -  °F | °C
As of 5:53 PM on Friday 24 Oct 2014 (Local Time) from KPUC Reporting Station
Clear Clear  
Wind Chill: 68°   Ceiling: Unl
Heat Index: 68°   Visibility: 10mi
Dew Point: 31°   Wind: 5mph
Humidity: 25%   Direction: 90°E
Pressure: 30.25"   Gusts: NA
Location:  40.16°N, 110.4°W
Report Text: KPUC 242353Z AUTO 09004KT 10SM CLR 20/M01 A3025 RMK AO2 SLP206 T02001006 10211 20167 57006 TSNO
Loading
Personal Weather Stations






























Interactive Weather Map
Tropical Storm Tracking
New forecast layout! Learn more

10-Day Weather Forecast

Advertisements
Track Severe Weather on mobile